sensor_id;sensor_type;location;lat;lon;timestamp;P1;durP1;ratioP1;P2;durP2;ratioP2
21831;SDS011;11078;49.872;6.188;2022-09-20T00:02:21;2.47;;;1.30;;
21831;SDS011;11078;49.872;6.188;2022-09-20T00:04:47;2.85;;;1.10;;
21831;SDS011;11078;49.872;6.188;2022-09-20T00:07:13;5.45;;;1.35;;
21831;SDS011;11078;49.872;6.188;2022-09-20T00:09:39;1.92;;;1.02;;
21831;SDS011;11078;49.872;6.188;2022-09-20T00:12:05;1.60;;;1.15;;
21831;SDS011;11078;49.872;6.188;2022-09-20T00:14:32;3.47;;;1.30;;
21831;SDS011;11078;49.872;6.188;2022-09-20T00:16:58;4.88;;;1.35;;
21831;SDS011;11078;49.872;6.188;2022-09-20T00:19:24;1.27;;;1.10;;
21831;SDS011;11078;49.872;6.188;2022-09-20T00:21:50;1.90;;;1.20;;
21831;SDS011;11078;49.872;6.188;2022-09-20T00:24:16;5.18;;;0.95;;
21831;SDS011;11078;49.872;6.188;2022-09-20T00:26:41;2.90;;;1.30;;
21831;SDS011;11078;49.872;6.188;2022-09-20T00:29:07;1.30;;;1.13;;
21831;SDS011;11078;49.872;6.188;2022-09-20T00:31:33;2.05;;;1.30;;
21831;SDS011;11078;49.872;6.188;2022-09-20T00:34:01;4.05;;;1.20;;
21831;SDS011;11078;49.872;6.188;2022-09-20T00:36:43;1.65;;;1.10;;
21831;SDS011;11078;49.872;6.188;2022-09-20T00:39:11;1.90;;;1.25;;
21831;SDS011;11078;49.872;6.188;2022-09-20T00:41:38;1.73;;;1.23;;
21831;SDS011;11078;49.872;6.188;2022-09-20T00:47:00;1.10;;;1.10;;
21831;SDS011;11078;49.872;6.188;2022-09-20T00:49:27;3.38;;;1.20;;
21831;SDS011;11078;49.872;6.188;2022-09-20T00:51:54;4.80;;;1.17;;
21831;SDS011;11078;49.872;6.188;2022-09-20T00:54:25;7.35;;;1.20;;
21831;SDS011;11078;49.872;6.188;2022-09-20T00:56:52;2.47;;;1.13;;
21831;SDS011;11078;49.872;6.188;2022-09-20T00:59:19;2.38;;;1.33;;
21831;SDS011;11078;49.872;6.188;2022-09-20T01:01:51;1.75;;;1.20;;
21831;SDS011;11078;49.872;6.188;2022-09-20T01:04:24;2.05;;;1.00;;
21831;SDS011;11078;49.872;6.188;2022-09-20T01:06:53;4.18;;;1.15;;
21831;SDS011;11078;49.872;6.188;2022-09-20T01:09:21;1.67;;;0.85;;
21831;SDS011;11078;49.872;6.188;2022-09-20T01:11:47;1.08;;;0.75;;
21831;SDS011;11078;49.872;6.188;2022-09-20T01:14:16;1.08;;;0.88;;
21831;SDS011;11078;49.872;6.188;2022-09-20T01:16:46;1.00;;;0.98;;
21831;SDS011;11078;49.872;6.188;2022-09-20T01:19:18;1.85;;;0.90;;
21831;SDS011;11078;49.872;6.188;2022-09-20T01:22:01;4.40;;;0.75;;
21831;SDS011;11078;49.872;6.188;2022-09-20T01:24:36;3.00;;;1.50;;
21831;SDS011;11078;49.872;6.188;2022-09-20T01:27:22;2.38;;;0.88;;
21831;SDS011;11078;49.872;6.188;2022-09-20T01:30:04;4.18;;;1.00;;
21831;SDS011;11078;49.872;6.188;2022-09-20T01:32:36;5.63;;;1.00;;
21831;SDS011;11078;49.872;6.188;2022-09-20T01:35:20;4.18;;;0.88;;
21831;SDS011;11078;49.872;6.188;2022-09-20T01:37:57;2.05;;;0.93;;
21831;SDS011;11078;49.872;6.188;2022-09-20T01:40:46;1.73;;;1.20;;
21831;SDS011;11078;49.872;6.188;2022-09-20T01:43:33;6.28;;;1.10;;
21831;SDS011;11078;49.872;6.188;2022-09-20T01:46:10;1.73;;;0.98;;
21831;SDS011;11078;49.872;6.188;2022-09-20T01:48:55;1.98;;;0.93;;
21831;SDS011;11078;49.872;6.188;2022-09-20T01:57:42;2.53;;;1.17;;
21831;SDS011;11078;49.872;6.188;2022-09-20T02:00:27;2.13;;;0.93;;
21831;SDS011;11078;49.872;6.188;2022-09-20T02:03:03;2.00;;;1.08;;
21831;SDS011;11078;49.872;6.188;2022-09-20T02:06:02;1.08;;;0.90;;
21831;SDS011;11078;49.872;6.188;2022-09-20T02:08:53;1.35;;;0.90;;
21831;SDS011;11078;49.872;6.188;2022-09-20T02:11:45;3.38;;;0.90;;
21831;SDS011;11078;49.872;6.188;2022-09-20T02:17:17;2.78;;;1.00;;
21831;SDS011;11078;49.872;6.188;2022-09-20T02:26:18;2.60;;;1.15;;
21831;SDS011;11078;49.872;6.188;2022-09-20T02:29:01;3.95;;;1.05;;
21831;SDS011;11078;49.872;6.188;2022-09-20T02:34:52;3.45;;;1.20;;
21831;SDS011;11078;49.872;6.188;2022-09-20T02:37:36;2.42;;;1.00;;
21831;SDS011;11078;49.872;6.188;2022-09-20T02:40:25;1.85;;;1.02;;
21831;SDS011;11078;49.872;6.188;2022-09-20T02:43:06;2.55;;;1.17;;
21831;SDS011;11078;49.872;6.188;2022-09-20T02:45:51;3.05;;;1.20;;
21831;SDS011;11078;49.872;6.188;2022-09-20T02:48:28;3.40;;;1.10;;
21831;SDS011;11078;49.872;6.188;2022-09-20T02:51:09;1.45;;;1.20;;
21831;SDS011;11078;49.872;6.188;2022-09-20T02:53:50;4.00;;;1.20;;
21831;SDS011;11078;49.872;6.188;2022-09-20T02:56:44;3.78;;;1.15;;
21831;SDS011;11078;49.872;6.188;2022-09-20T02:59:31;1.95;;;1.00;;
21831;SDS011;11078;49.872;6.188;2022-09-20T03:05:18;1.67;;;0.93;;
21831;SDS011;11078;49.872;6.188;2022-09-20T03:07:56;5.18;;;1.13;;
21831;SDS011;11078;49.872;6.188;2022-09-20T03:13:47;1.20;;;0.93;;
21831;SDS011;11078;49.872;6.188;2022-09-20T03:16:33;1.35;;;1.23;;
21831;SDS011;11078;49.872;6.188;2022-09-20T03:19:19;1.15;;;1.05;;
21831;SDS011;11078;49.872;6.188;2022-09-20T03:24:57;2.30;;;1.27;;
21831;SDS011;11078;49.872;6.188;2022-09-20T03:27:38;1.02;;;0.93;;
21831;SDS011;11078;49.872;6.188;2022-09-20T03:33:11;2.22;;;1.13;;
21831;SDS011;11078;49.872;6.188;2022-09-20T03:44:45;1.40;;;1.02;;
21831;SDS011;11078;49.872;6.188;2022-09-20T03:47:37;2.70;;;1.15;;
21831;SDS011;11078;49.872;6.188;2022-09-20T03:56:12;1.80;;;1.15;;
21831;SDS011;11078;49.872;6.188;2022-09-20T04:02:02;1.83;;;1.15;;
21831;SDS011;11078;49.872;6.188;2022-09-20T04:04:45;1.52;;;1.20;;
21831;SDS011;11078;49.872;6.188;2022-09-20T04:07:33;6.00;;;1.30;;
21831;SDS011;11078;49.872;6.188;2022-09-20T04:16:24;2.53;;;1.10;;
21831;SDS011;11078;49.872;6.188;2022-09-20T04:19:13;2.45;;;1.00;;
21831;SDS011;11078;49.872;6.188;2022-09-20T04:21:52;3.17;;;1.38;;
21831;SDS011;11078;49.872;6.188;2022-09-20T04:24:24;3.05;;;1.20;;
21831;SDS011;11078;49.872;6.188;2022-09-20T04:27:16;2.47;;;1.40;;
21831;SDS011;11078;49.872;6.188;2022-09-20T04:30:01;1.48;;;1.20;;
21831;SDS011;11078;49.872;6.188;2022-09-20T04:32:35;2.47;;;1.17;;
21831;SDS011;11078;49.872;6.188;2022-09-20T04:35:12;2.58;;;1.10;;
21831;SDS011;11078;49.872;6.188;2022-09-20T04:38:06;2.40;;;1.10;;
21831;SDS011;11078;49.872;6.188;2022-09-20T04:46:42;2.80;;;1.38;;
21831;SDS011;11078;49.872;6.188;2022-09-20T04:49:49;4.93;;;1.38;;
21831;SDS011;11078;49.872;6.188;2022-09-20T04:52:42;1.40;;;0.98;;
21831;SDS011;11078;49.872;6.188;2022-09-20T04:55:40;4.80;;;1.33;;
21831;SDS011;11078;49.872;6.188;2022-09-20T05:06:58;1.55;;;1.40;;
21831;SDS011;11078;49.872;6.188;2022-09-20T05:13:01;2.97;;;1.10;;
21831;SDS011;11078;49.872;6.188;2022-09-20T05:15:43;2.13;;;1.30;;
21831;SDS011;11078;49.872;6.188;2022-09-20T05:21:28;2.88;;;1.73;;
21831;SDS011;11078;49.872;6.188;2022-09-20T05:27:15;2.75;;;1.50;;
21831;SDS011;11078;49.872;6.188;2022-09-20T05:30:02;4.22;;;1.67;;
21831;SDS011;11078;49.872;6.188;2022-09-20T05:32:35;2.58;;;1.45;;
21831;SDS011;11078;49.872;6.188;2022-09-20T05:35:21;2.92;;;1.60;;
21831;SDS011;11078;49.872;6.188;2022-09-20T05:46:35;3.22;;;1.35;;
21831;SDS011;11078;49.872;6.188;2022-09-20T05:49:29;3.90;;;1.42;;
21831;SDS011;11078;49.872;6.188;2022-09-20T06:00:57;5.05;;;1.90;;
21831;SDS011;11078;49.872;6.188;2022-09-20T06:03:38;2.47;;;1.80;;
21831;SDS011;11078;49.872;6.188;2022-09-20T06:06:13;1.55;;;1.45;;
21831;SDS011;11078;49.872;6.188;2022-09-20T06:17:37;3.05;;;2.15;;
21831;SDS011;11078;49.872;6.188;2022-09-20T06:20:24;3.13;;;2.42;;
21831;SDS011;11078;49.872;6.188;2022-09-20T06:22:57;4.60;;;2.55;;
21831;SDS011;11078;49.872;6.188;2022-09-20T06:25:27;4.43;;;2.53;;
21831;SDS011;11078;49.872;6.188;2022-09-20T06:28:07;6.93;;;2.33;;
21831;SDS011;11078;49.872;6.188;2022-09-20T06:30:43;5.57;;;2.50;;
21831;SDS011;11078;49.872;6.188;2022-09-20T06:33:14;7.05;;;2.70;;
21831;SDS011;11078;49.872;6.188;2022-09-20T06:42:07;3.45;;;2.47;;
21831;SDS011;11078;49.872;6.188;2022-09-20T06:44:34;5.22;;;2.60;;
21831;SDS011;11078;49.872;6.188;2022-09-20T06:47:05;4.22;;;2.53;;
21831;SDS011;11078;49.872;6.188;2022-09-20T06:49:34;3.58;;;2.35;;
21831;SDS011;11078;49.872;6.188;2022-09-20T06:52:03;4.82;;;2.90;;
21831;SDS011;11078;49.872;6.188;2022-09-20T06:54:31;4.55;;;3.03;;
21831;SDS011;11078;49.872;6.188;2022-09-20T06:56:58;5.03;;;2.70;;
21831;SDS011;11078;49.872;6.188;2022-09-20T06:59:28;4.72;;;2.63;;
21831;SDS011;11078;49.872;6.188;2022-09-20T07:01:54;6.80;;;2.28;;
21831;SDS011;11078;49.872;6.188;2022-09-20T07:04:20;9.45;;;2.50;;
21831;SDS011;11078;49.872;6.188;2022-09-20T07:06:47;6.43;;;3.20;;
21831;SDS011;11078;49.872;6.188;2022-09-20T07:09:13;6.45;;;3.00;;
21831;SDS011;11078;49.872;6.188;2022-09-20T07:11:39;6.05;;;2.63;;
21831;SDS011;11078;49.872;6.188;2022-09-20T07:14:05;4.65;;;2.40;;
21831;SDS011;11078;49.872;6.188;2022-09-20T07:16:32;6.75;;;2.50;;
21831;SDS011;11078;49.872;6.188;2022-09-20T07:18:59;4.07;;;2.72;;
21831;SDS011;11078;49.872;6.188;2022-09-20T07:21:25;3.17;;;2.47;;
21831;SDS011;11078;49.872;6.188;2022-09-20T07:23:51;5.65;;;2.60;;
21831;SDS011;11078;49.872;6.188;2022-09-20T07:26:22;3.58;;;2.45;;
21831;SDS011;11078;49.872;6.188;2022-09-20T07:28:51;8.25;;;2.85;;
21831;SDS011;11078;49.872;6.188;2022-09-20T07:31:18;4.63;;;2.38;;
21831;SDS011;11078;49.872;6.188;2022-09-20T07:33:46;6.72;;;2.42;;
21831;SDS011;11078;49.872;6.188;2022-09-20T07:36:13;4.43;;;2.15;;
21831;SDS011;11078;49.872;6.188;2022-09-20T07:38:40;5.00;;;2.30;;
21831;SDS011;11078;49.872;6.188;2022-09-20T07:41:07;3.83;;;2.08;;
21831;SDS011;11078;49.872;6.188;2022-09-20T07:43:34;3.67;;;2.15;;
21831;SDS011;11078;49.872;6.188;2022-09-20T07:46:00;4.28;;;2.30;;
21831;SDS011;11078;49.872;6.188;2022-09-20T07:48:29;7.07;;;1.95;;
21831;SDS011;11078;49.872;6.188;2022-09-20T07:50:57;5.15;;;1.80;;
21831;SDS011;11078;49.872;6.188;2022-09-20T07:53:28;6.05;;;1.60;;
21831;SDS011;11078;49.872;6.188;2022-09-20T07:55:56;4.75;;;2.08;;
21831;SDS011;11078;49.872;6.188;2022-09-20T07:58:23;2.88;;;1.88;;
21831;SDS011;11078;49.872;6.188;2022-09-20T08:00:57;3.15;;;2.20;;
21831;SDS011;11078;49.872;6.188;2022-09-20T08:03:24;5.43;;;1.73;;
21831;SDS011;11078;49.872;6.188;2022-09-20T08:05:51;4.35;;;2.05;;
21831;SDS011;11078;49.872;6.188;2022-09-20T08:08:27;1.77;;;1.63;;
21831;SDS011;11078;49.872;6.188;2022-09-20T08:13:43;3.55;;;1.77;;
21831;SDS011;11078;49.872;6.188;2022-09-20T08:16:11;5.65;;;1.98;;
21831;SDS011;11078;49.872;6.188;2022-09-20T08:18:44;1.80;;;1.40;;
21831;SDS011;11078;49.872;6.188;2022-09-20T08:21:12;1.17;;;1.08;;
21831;SDS011;11078;49.872;6.188;2022-09-20T08:23:39;4.57;;;1.48;;
21831;SDS011;11078;49.872;6.188;2022-09-20T08:26:08;0.90;;;0.80;;
21831;SDS011;11078;49.872;6.188;2022-09-20T08:28:37;3.80;;;1.00;;
21831;SDS011;11078;49.872;6.188;2022-09-20T08:31:06;4.03;;;0.88;;
21831;SDS011;11078;49.872;6.188;2022-09-20T08:33:34;1.27;;;0.80;;
21831;SDS011;11078;49.872;6.188;2022-09-20T08:36:02;0.82;;;0.73;;
21831;SDS011;11078;49.872;6.188;2022-09-20T08:38:31;3.08;;;0.88;;
21831;SDS011;11078;49.872;6.188;2022-09-20T08:41:03;3.00;;;0.85;;
21831;SDS011;11078;49.872;6.188;2022-09-20T08:43:36;3.40;;;1.00;;
21831;SDS011;11078;49.872;6.188;2022-09-20T08:46:13;1.27;;;1.00;;
21831;SDS011;11078;49.872;6.188;2022-09-20T08:48:42;1.55;;;0.90;;
21831;SDS011;11078;49.872;6.188;2022-09-20T08:51:09;1.75;;;0.98;;
21831;SDS011;11078;49.872;6.188;2022-09-20T08:53:42;0.93;;;0.70;;
21831;SDS011;11078;49.872;6.188;2022-09-20T08:56:11;1.42;;;0.80;;
21831;SDS011;11078;49.872;6.188;2022-09-20T08:58:38;1.30;;;0.70;;
21831;SDS011;11078;49.872;6.188;2022-09-20T09:01:04;2.30;;;0.90;;
21831;SDS011;11078;49.872;6.188;2022-09-20T09:03:31;0.98;;;0.80;;
21831;SDS011;11078;49.872;6.188;2022-09-20T09:05:58;1.98;;;0.80;;
21831;SDS011;11078;49.872;6.188;2022-09-20T09:08:33;1.42;;;0.90;;
21831;SDS011;11078;49.872;6.188;2022-09-20T09:11:01;1.90;;;0.68;;
21831;SDS011;11078;49.872;6.188;2022-09-20T09:13:45;1.15;;;0.80;;
21831;SDS011;11078;49.872;6.188;2022-09-20T09:16:17;0.77;;;0.77;;
21831;SDS011;11078;49.872;6.188;2022-09-20T09:18:46;2.30;;;0.90;;
21831;SDS011;11078;49.872;6.188;2022-09-20T09:21:16;1.77;;;0.80;;
21831;SDS011;11078;49.872;6.188;2022-09-20T09:23:49;1.13;;;0.70;;
21831;SDS011;11078;49.872;6.188;2022-09-20T09:26:22;2.47;;;0.70;;
21831;SDS011;11078;49.872;6.188;2022-09-20T09:31:34;1.92;;;0.80;;
21831;SDS011;11078;49.872;6.188;2022-09-20T09:34:02;4.88;;;0.77;;
21831;SDS011;11078;49.872;6.188;2022-09-20T09:36:28;1.60;;;0.70;;
21831;SDS011;11078;49.872;6.188;2022-09-20T09:41:40;1.33;;;0.80;;
21831;SDS011;11078;49.872;6.188;2022-09-20T09:44:27;1.73;;;0.77;;
21831;SDS011;11078;49.872;6.188;2022-09-20T09:46:55;1.13;;;0.77;;
21831;SDS011;11078;49.872;6.188;2022-09-20T09:49:24;1.50;;;1.02;;
21831;SDS011;11078;49.872;6.188;2022-09-20T09:52:14;1.08;;;1.00;;
21831;SDS011;11078;49.872;6.188;2022-09-20T09:54:51;3.90;;;1.30;;
21831;SDS011;11078;49.872;6.188;2022-09-20T10:00:20;0.80;;;0.80;;
21831;SDS011;11078;49.872;6.188;2022-09-20T10:02:54;2.25;;;1.00;;
21831;SDS011;11078;49.872;6.188;2022-09-20T10:08:36;0.95;;;0.95;;
21831;SDS011;11078;49.872;6.188;2022-09-20T10:17:07;0.65;;;0.65;;
21831;SDS011;11078;49.872;6.188;2022-09-20T10:19:56;2.53;;;0.85;;
21831;SDS011;11078;49.872;6.188;2022-09-20T10:28:10;1.13;;;1.00;;
21831;SDS011;11078;49.872;6.188;2022-09-20T10:31:01;2.67;;;1.15;;
21831;SDS011;11078;49.872;6.188;2022-09-20T10:33:45;3.33;;;1.35;;
21831;SDS011;11078;49.872;6.188;2022-09-20T10:36:37;3.95;;;1.50;;
21831;SDS011;11078;49.872;6.188;2022-09-20T10:39:32;5.10;;;1.63;;
21831;SDS011;11078;49.872;6.188;2022-09-20T10:47:57;3.15;;;1.58;;
21831;SDS011;11078;49.872;6.188;2022-09-20T10:50:35;2.00;;;1.50;;
21831;SDS011;11078;49.872;6.188;2022-09-20T11:04:54;2.13;;;1.70;;
21831;SDS011;11078;49.872;6.188;2022-09-20T11:07:50;3.90;;;1.90;;
21831;SDS011;11078;49.872;6.188;2022-09-20T11:10:34;2.58;;;1.48;;
21831;SDS011;11078;49.872;6.188;2022-09-20T11:13:06;3.47;;;1.58;;
21831;SDS011;11078;49.872;6.188;2022-09-20T11:15:52;2.22;;;1.65;;
21831;SDS011;11078;49.872;6.188;2022-09-20T11:18:28;4.72;;;1.60;;
21831;SDS011;11078;49.872;6.188;2022-09-20T11:21:24;1.98;;;1.20;;
21831;SDS011;11078;49.872;6.188;2022-09-20T11:26:53;1.25;;;1.20;;
21831;SDS011;11078;49.872;6.188;2022-09-20T11:29:25;1.30;;;1.20;;
21831;SDS011;11078;49.872;6.188;2022-09-20T11:32:02;2.72;;;1.27;;
21831;SDS011;11078;49.872;6.188;2022-09-20T11:34:48;2.35;;;1.23;;
21831;SDS011;11078;49.872;6.188;2022-09-20T11:37:19;2.05;;;1.27;;
21831;SDS011;11078;49.872;6.188;2022-09-20T11:39:54;2.55;;;1.55;;
21831;SDS011;11078;49.872;6.188;2022-09-20T11:42:24;2.85;;;1.33;;
21831;SDS011;11078;49.872;6.188;2022-09-20T11:44:55;1.30;;;1.10;;
21831;SDS011;11078;49.872;6.188;2022-09-20T11:47:27;1.70;;;0.95;;
21831;SDS011;11078;49.872;6.188;2022-09-20T11:50:06;1.60;;;1.08;;
21831;SDS011;11078;49.872;6.188;2022-09-20T11:53:00;1.83;;;1.13;;
21831;SDS011;11078;49.872;6.188;2022-09-20T11:55:53;1.13;;;1.02;;
21831;SDS011;11078;49.872;6.188;2022-09-20T11:58:35;2.10;;;1.10;;
21831;SDS011;11078;49.872;6.188;2022-09-20T12:01:13;1.40;;;1.20;;
21831;SDS011;11078;49.872;6.188;2022-09-20T12:03:50;1.60;;;1.20;;
21831;SDS011;11078;49.872;6.188;2022-09-20T12:09:03;1.33;;;1.23;;
21831;SDS011;11078;49.872;6.188;2022-09-20T12:11:46;2.88;;;1.30;;
21831;SDS011;11078;49.872;6.188;2022-09-20T12:14:16;1.58;;;1.20;;
21831;SDS011;11078;49.872;6.188;2022-09-20T12:16:47;2.30;;;1.20;;
21831;SDS011;11078;49.872;6.188;2022-09-20T12:25:30;1.83;;;1.10;;
21831;SDS011;11078;49.872;6.188;2022-09-20T12:27:54;1.48;;;1.27;;
21831;SDS011;11078;49.872;6.188;2022-09-20T12:30:21;1.60;;;1.27;;
21831;SDS011;11078;49.872;6.188;2022-09-20T12:32:49;1.33;;;1.10;;
21831;SDS011;11078;49.872;6.188;2022-09-20T12:38:28;3.50;;;1.05;;
21831;SDS011;11078;49.872;6.188;2022-09-20T12:40:57;2.33;;;0.90;;
21831;SDS011;11078;49.872;6.188;2022-09-20T12:43:29;4.30;;;1.10;;
21831;SDS011;11078;49.872;6.188;2022-09-20T12:45:57;2.47;;;1.10;;
21831;SDS011;11078;49.872;6.188;2022-09-20T12:48:23;3.35;;;1.20;;
21831;SDS011;11078;49.872;6.188;2022-09-20T12:54:04;1.15;;;0.98;;
21831;SDS011;11078;49.872;6.188;2022-09-20T12:56:34;0.95;;;0.90;;
21831;SDS011;11078;49.872;6.188;2022-09-20T12:59:03;1.95;;;1.08;;
21831;SDS011;11078;49.872;6.188;2022-09-20T13:01:42;1.77;;;1.13;;
21831;SDS011;11078;49.872;6.188;2022-09-20T13:10:05;2.30;;;0.93;;
21831;SDS011;11078;49.872;6.188;2022-09-20T13:12:42;2.70;;;1.00;;
21831;SDS011;11078;49.872;6.188;2022-09-20T13:15:10;0.77;;;0.77;;
21831;SDS011;11078;49.872;6.188;2022-09-20T13:17:42;1.63;;;0.93;;
21831;SDS011;11078;49.872;6.188;2022-09-20T13:20:19;0.90;;;0.90;;
21831;SDS011;11078;49.872;6.188;2022-09-20T13:22:51;1.00;;;0.70;;
21831;SDS011;11078;49.872;6.188;2022-09-20T13:25:18;3.05;;;1.00;;
21831;SDS011;11078;49.872;6.188;2022-09-20T13:27:51;2.67;;;1.00;;
21831;SDS011;11078;49.872;6.188;2022-09-20T13:30:34;0.80;;;0.80;;
21831;SDS011;11078;49.872;6.188;2022-09-20T13:35:47;0.90;;;0.90;;
21831;SDS011;11078;49.872;6.188;2022-09-20T13:38:17;4.90;;;0.75;;
21831;SDS011;11078;49.872;6.188;2022-09-20T13:40:46;0.90;;;0.90;;
21831;SDS011;11078;49.872;6.188;2022-09-20T13:43:24;1.92;;;1.00;;
21831;SDS011;11078;49.872;6.188;2022-09-20T13:45:54;2.13;;;1.40;;
21831;SDS011;11078;49.872;6.188;2022-09-20T13:48:24;2.67;;;1.00;;
21831;SDS011;11078;49.872;6.188;2022-09-20T13:50:52;3.95;;;0.90;;
21831;SDS011;11078;49.872;6.188;2022-09-20T13:53:20;1.42;;;1.10;;
21831;SDS011;11078;49.872;6.188;2022-09-20T13:55:47;1.80;;;0.80;;
21831;SDS011;11078;49.872;6.188;2022-09-20T13:58:16;1.40;;;0.90;;
21831;SDS011;11078;49.872;6.188;2022-09-20T14:00:46;0.80;;;0.80;;
21831;SDS011;11078;49.872;6.188;2022-09-20T14:03:16;1.95;;;0.85;;
21831;SDS011;11078;49.872;6.188;2022-09-20T14:05:46;2.10;;;1.08;;
21831;SDS011;11078;49.872;6.188;2022-09-20T14:08:19;3.38;;;1.08;;
21831;SDS011;11078;49.872;6.188;2022-09-20T14:10:49;3.70;;;1.00;;
21831;SDS011;11078;49.872;6.188;2022-09-20T14:13:27;1.92;;;0.73;;
21831;SDS011;11078;49.872;6.188;2022-09-20T14:15:57;0.77;;;0.77;;
21831;SDS011;11078;49.872;6.188;2022-09-20T14:18:23;0.73;;;0.73;;
21831;SDS011;11078;49.872;6.188;2022-09-20T14:20:49;1.60;;;0.60;;
21831;SDS011;11078;49.872;6.188;2022-09-20T14:23:19;0.60;;;0.60;;
21831;SDS011;11078;49.872;6.188;2022-09-20T14:28:31;2.30;;;0.70;;
21831;SDS011;11078;49.872;6.188;2022-09-20T14:31:05;0.70;;;0.63;;
21831;SDS011;11078;49.872;6.188;2022-09-20T14:33:39;1.88;;;1.00;;
21831;SDS011;11078;49.872;6.188;2022-09-20T14:36:13;1.70;;;0.90;;
21831;SDS011;11078;49.872;6.188;2022-09-20T14:38:43;0.77;;;0.70;;
21831;SDS011;11078;49.872;6.188;2022-09-20T14:41:11;2.42;;;0.93;;
21831;SDS011;11078;49.872;6.188;2022-09-20T14:43:38;0.95;;;0.63;;
21831;SDS011;11078;49.872;6.188;2022-09-20T14:48:53;0.68;;;0.63;;
21831;SDS011;11078;49.872;6.188;2022-09-20T14:51:39;2.92;;;0.95;;
21831;SDS011;11078;49.872;6.188;2022-09-20T14:56:54;0.70;;;0.70;;
21831;SDS011;11078;49.872;6.188;2022-09-20T14:59:23;4.78;;;0.80;;
21831;SDS011;11078;49.872;6.188;2022-09-20T15:04:38;2.45;;;0.80;;
21831;SDS011;11078;49.872;6.188;2022-09-20T15:07:07;0.80;;;0.63;;
21831;SDS011;11078;49.872;6.188;2022-09-20T15:09:35;0.93;;;0.90;;
21831;SDS011;11078;49.872;6.188;2022-09-20T15:12:04;0.82;;;0.77;;
21831;SDS011;11078;49.872;6.188;2022-09-20T15:14:37;5.68;;;0.70;;
21831;SDS011;11078;49.872;6.188;2022-09-20T15:17:05;1.92;;;0.70;;
21831;SDS011;11078;49.872;6.188;2022-09-20T15:19:34;2.15;;;0.70;;
21831;SDS011;11078;49.872;6.188;2022-09-20T15:22:00;1.20;;;0.90;;
21831;SDS011;11078;49.872;6.188;2022-09-20T15:24:26;1.50;;;0.80;;
21831;SDS011;11078;49.872;6.188;2022-09-20T15:26:52;3.38;;;1.35;;
21831;SDS011;11078;49.872;6.188;2022-09-20T15:29:18;1.30;;;1.08;;
21831;SDS011;11078;49.872;6.188;2022-09-20T15:31:45;1.40;;;0.90;;
21831;SDS011;11078;49.872;6.188;2022-09-20T15:34:12;1.45;;;0.80;;
21831;SDS011;11078;49.872;6.188;2022-09-20T15:36:39;0.93;;;0.80;;
21831;SDS011;11078;49.872;6.188;2022-09-20T15:39:06;1.05;;;0.93;;
21831;SDS011;11078;49.872;6.188;2022-09-20T15:41:33;4.00;;;1.10;;
21831;SDS011;11078;49.872;6.188;2022-09-20T15:44:00;1.02;;;1.00;;
21831;SDS011;11078;49.872;6.188;2022-09-20T15:46:27;1.77;;;1.08;;
21831;SDS011;11078;49.872;6.188;2022-09-20T15:48:53;2.95;;;0.90;;
21831;SDS011;11078;49.872;6.188;2022-09-20T15:51:21;3.03;;;1.00;;
21831;SDS011;11078;49.872;6.188;2022-09-20T15:53:55;1.80;;;0.93;;
21831;SDS011;11078;49.872;6.188;2022-09-20T15:56:24;2.28;;;0.75;;
21831;SDS011;11078;49.872;6.188;2022-09-20T15:58:53;1.63;;;0.80;;
21831;SDS011;11078;49.872;6.188;2022-09-20T16:01:23;1.88;;;0.90;;
21831;SDS011;11078;49.872;6.188;2022-09-20T16:03:52;1.30;;;0.60;;
21831;SDS011;11078;49.872;6.188;2022-09-20T16:06:19;1.50;;;1.08;;
21831;SDS011;11078;49.872;6.188;2022-09-20T16:08:46;0.95;;;0.80;;
21831;SDS011;11078;49.872;6.188;2022-09-20T16:11:14;2.05;;;0.65;;
21831;SDS011;11078;49.872;6.188;2022-09-20T16:13:42;2.05;;;0.80;;
21831;SDS011;11078;49.872;6.188;2022-09-20T16:16:08;1.75;;;0.73;;
21831;SDS011;11078;49.872;6.188;2022-09-20T16:18:37;0.93;;;0.90;;
21831;SDS011;11078;49.872;6.188;2022-09-20T16:21:23;0.90;;;0.90;;
21831;SDS011;11078;49.872;6.188;2022-09-20T16:23:51;1.05;;;0.90;;
21831;SDS011;11078;49.872;6.188;2022-09-20T16:26:18;0.75;;;0.75;;
21831;SDS011;11078;49.872;6.188;2022-09-20T16:28:46;2.22;;;0.85;;
21831;SDS011;11078;49.872;6.188;2022-09-20T16:33:57;0.85;;;0.85;;
21831;SDS011;11078;49.872;6.188;2022-09-20T16:36:24;1.00;;;0.90;;
21831;SDS011;11078;49.872;6.188;2022-09-20T16:38:51;1.08;;;0.75;;
21831;SDS011;11078;49.872;6.188;2022-09-20T16:41:21;2.20;;;0.90;;
21831;SDS011;11078;49.872;6.188;2022-09-20T16:43:48;1.13;;;1.02;;
21831;SDS011;11078;49.872;6.188;2022-09-20T16:46:15;2.55;;;1.00;;
21831;SDS011;11078;49.872;6.188;2022-09-20T16:48:46;1.42;;;0.90;;
21831;SDS011;11078;49.872;6.188;2022-09-20T16:51:18;4.13;;;0.98;;
21831;SDS011;11078;49.872;6.188;2022-09-20T16:53:46;2.63;;;0.88;;
21831;SDS011;11078;49.872;6.188;2022-09-20T16:56:20;0.90;;;0.90;;
21831;SDS011;11078;49.872;6.188;2022-09-20T16:58:48;3.25;;;1.00;;
21831;SDS011;11078;49.872;6.188;2022-09-20T17:01:15;2.20;;;0.88;;
21831;SDS011;11078;49.872;6.188;2022-09-20T17:03:42;1.77;;;0.80;;
21831;SDS011;11078;49.872;6.188;2022-09-20T17:06:09;1.58;;;0.50;;
21831;SDS011;11078;49.872;6.188;2022-09-20T17:08:38;0.90;;;0.70;;
21831;SDS011;11078;49.872;6.188;2022-09-20T17:11:06;2.83;;;0.80;;
21831;SDS011;11078;49.872;6.188;2022-09-20T17:13:36;1.27;;;0.88;;
21831;SDS011;11078;49.872;6.188;2022-09-20T17:16:09;4.32;;;0.70;;
21831;SDS011;11078;49.872;6.188;2022-09-20T17:18:37;1.55;;;0.90;;
21831;SDS011;11078;49.872;6.188;2022-09-20T17:21:14;1.15;;;0.70;;
21831;SDS011;11078;49.872;6.188;2022-09-20T17:23:42;3.78;;;0.77;;
21831;SDS011;11078;49.872;6.188;2022-09-20T17:26:14;0.88;;;0.60;;
21831;SDS011;11078;49.872;6.188;2022-09-20T17:28:43;0.60;;;0.60;;
21831;SDS011;11078;49.872;6.188;2022-09-20T17:31:11;1.30;;;0.70;;
21831;SDS011;11078;49.872;6.188;2022-09-20T17:33:40;1.55;;;0.82;;
21831;SDS011;11078;49.872;6.188;2022-09-20T17:36:08;2.47;;;1.00;;
21831;SDS011;11078;49.872;6.188;2022-09-20T17:38:43;1.50;;;0.70;;
21831;SDS011;11078;49.872;6.188;2022-09-20T17:41:12;0.50;;;0.50;;
21831;SDS011;11078;49.872;6.188;2022-09-20T17:43:41;0.90;;;0.60;;
21831;SDS011;11078;49.872;6.188;2022-09-20T17:46:12;2.38;;;0.90;;
21831;SDS011;11078;49.872;6.188;2022-09-20T17:48:47;4.28;;;0.95;;
21831;SDS011;11078;49.872;6.188;2022-09-20T17:51:20;0.77;;;0.70;;
21831;SDS011;11078;49.872;6.188;2022-09-20T17:53:48;0.90;;;0.80;;
21831;SDS011;11078;49.872;6.188;2022-09-20T17:56:15;2.15;;;0.77;;
21831;SDS011;11078;49.872;6.188;2022-09-20T17:58:41;2.60;;;0.82;;
21831;SDS011;11078;49.872;6.188;2022-09-20T18:01:10;4.78;;;0.90;;
21831;SDS011;11078;49.872;6.188;2022-09-20T18:03:40;1.55;;;0.73;;
21831;SDS011;11078;49.872;6.188;2022-09-20T18:06:10;5.25;;;0.80;;
21831;SDS011;11078;49.872;6.188;2022-09-20T18:08:40;1.48;;;0.88;;
21831;SDS011;11078;49.872;6.188;2022-09-20T18:11:09;1.83;;;0.73;;
21831;SDS011;11078;49.872;6.188;2022-09-20T18:13:35;3.05;;;0.88;;
21831;SDS011;11078;49.872;6.188;2022-09-20T18:16:02;3.40;;;0.80;;
21831;SDS011;11078;49.872;6.188;2022-09-20T18:18:30;0.77;;;0.60;;
21831;SDS011;11078;49.872;6.188;2022-09-20T18:20:56;1.50;;;0.80;;
21831;SDS011;11078;49.872;6.188;2022-09-20T18:23:24;2.13;;;0.85;;
21831;SDS011;11078;49.872;6.188;2022-09-20T18:25:51;3.67;;;0.70;;
21831;SDS011;11078;49.872;6.188;2022-09-20T18:28:32;4.32;;;0.90;;
21831;SDS011;11078;49.872;6.188;2022-09-20T18:31:00;1.05;;;0.82;;
21831;SDS011;11078;49.872;6.188;2022-09-20T18:33:27;3.30;;;0.93;;
21831;SDS011;11078;49.872;6.188;2022-09-20T18:35:59;1.88;;;0.82;;
21831;SDS011;11078;49.872;6.188;2022-09-20T18:38:27;1.95;;;0.95;;
21831;SDS011;11078;49.872;6.188;2022-09-20T18:40:55;1.73;;;0.90;;
21831;SDS011;11078;49.872;6.188;2022-09-20T18:43:25;2.75;;;1.17;;